sensor_id;sensor_type;location;lat;lon;timestamp;P1;durP1;ratioP1;P2;durP2;ratioP2
15504;SDS011;7854;52.184;5.942;2023-02-28T00:00:00;5;;;4;;
15504;SDS011;7854;52.184;5.942;2023-02-28T00:03:11;4;;;4;;
15504;SDS011;7854;52.184;5.942;2023-02-28T00:04:29;13;;;4;;
15504;SDS011;7854;52.184;5.942;2023-02-28T00:06:43;14;;;8;;
15504;SDS011;7854;52.184;5.942;2023-02-28T00:08:58;15;;;8;;
15504;SDS011;7854;52.184;5.942;2023-02-28T00:11:12;16;;;11;;
15504;SDS011;7854;52.184;5.942;2023-02-28T00:13:32;11;;;9;;
15504;SDS011;7854;52.184;5.942;2023-02-28T00:16:00;15;;;9;;
15504;SDS011;7854;52.184;5.942;2023-02-28T00:18:13;6;;;6;;
15504;SDS011;7854;52.184;5.942;2023-02-28T00:20:34;5;;;5;;
15504;SDS011;7854;52.184;5.942;2023-02-28T00:22:54;7;;;6;;
15504;SDS011;7854;52.184;5.942;2023-02-28T00:25:15;13;;;10;;
15504;SDS011;7854;52.184;5.942;2023-02-28T00:27:28;10;;;9;;
15504;SDS011;7854;52.184;5.942;2023-02-28T00:31:57;7;;;6;;
15504;SDS011;7854;52.184;5.942;2023-02-28T00:34:11;6;;;5;;
15504;SDS011;7854;52.184;5.942;2023-02-28T00:38:40;4;;;3;;
15504;SDS011;7854;52.184;5.942;2023-02-28T00:40:55;9;;;4;;
15504;SDS011;7854;52.184;5.942;2023-02-28T00:43:09;4;;;3;;
15504;SDS011;7854;52.184;5.942;2023-02-28T00:45:24;3;;;3;;
15504;SDS011;7854;52.184;5.942;2023-02-28T00:47:38;10;;;4;;
15504;SDS011;7854;52.184;5.942;2023-02-28T00:49:53;3;;;2;;
15504;SDS011;7854;52.184;5.942;2023-02-28T00:52:07;4;;;3;;
15504;SDS011;7854;52.184;5.942;2023-02-28T00:54:22;4;;;4;;
15504;SDS011;7854;52.184;5.942;2023-02-28T00:56:36;4;;;3;;
15504;SDS011;7854;52.184;5.942;2023-02-28T01:01:05;4;;;3;;
15504;SDS011;7854;52.184;5.942;2023-02-28T01:05:34;3;;;3;;
15504;SDS011;7854;52.184;5.942;2023-02-28T01:07:48;3;;;3;;
15504;SDS011;7854;52.184;5.942;2023-02-28T01:10:02;3;;;3;;
15504;SDS011;7854;52.184;5.942;2023-02-28T01:12:22;3;;;3;;
15504;SDS011;7854;52.184;5.942;2023-02-28T01:14:43;4;;;3;;
15504;SDS011;7854;52.184;5.942;2023-02-28T01:17:04;3;;;3;;
15504;SDS011;7854;52.184;5.942;2023-02-28T01:19:30;9;;;3;;
15504;SDS011;7854;52.184;5.942;2023-02-28T01:21:44;4;;;3;;
15504;SDS011;7854;52.184;5.942;2023-02-28T01:24:05;3;;;3;;
15504;SDS011;7854;52.184;5.942;2023-02-28T01:28:39;3;;;3;;
15504;SDS011;7854;52.184;5.942;2023-02-28T01:30:52;3;;;3;;
15504;SDS011;7854;52.184;5.942;2023-02-28T01:33:19;12;;;3;;
15504;SDS011;7854;52.184;5.942;2023-02-28T01:35:46;3;;;2;;
15504;SDS011;7854;52.184;5.942;2023-02-28T01:38:13;2;;;2;;
15504;SDS011;7854;52.184;5.942;2023-02-28T01:40:45;8;;;2;;
15504;SDS011;7854;52.184;5.942;2023-02-28T01:43:09;3;;;3;;
15504;SDS011;7854;52.184;5.942;2023-02-28T01:45:26;3;;;3;;
15504;SDS011;7854;52.184;5.942;2023-02-28T01:47:54;3;;;3;;
15504;SDS011;7854;52.184;5.942;2023-02-28T01:50:09;3;;;3;;
15504;SDS011;7854;52.184;5.942;2023-02-28T01:52:28;3;;;3;;
15504;SDS011;7854;52.184;5.942;2023-02-28T01:54:50;2;;;2;;
15504;SDS011;7854;52.184;5.942;2023-02-28T01:57:09;2;;;2;;
15504;SDS011;7854;52.184;5.942;2023-02-28T01:59:31;3;;;2;;
15504;SDS011;7854;52.184;5.942;2023-02-28T02:01:43;3;;;3;;
15504;SDS011;7854;52.184;5.942;2023-02-28T02:03:58;3;;;3;;
15504;SDS011;7854;52.184;5.942;2023-02-28T02:06:12;3;;;2;;
15504;SDS011;7854;52.184;5.942;2023-02-28T02:08:26;3;;;2;;
15504;SDS011;7854;52.184;5.942;2023-02-28T02:10:41;20;;;3;;
15504;SDS011;7854;52.184;5.942;2023-02-28T02:13:00;2;;;2;;
15504;SDS011;7854;52.184;5.942;2023-02-28T02:15:11;3;;;3;;
15504;SDS011;7854;52.184;5.942;2023-02-28T02:17:26;2;;;2;;
15504;SDS011;7854;52.184;5.942;2023-02-28T02:19:49;7;;;3;;
15504;SDS011;7854;52.184;5.942;2023-02-28T02:21:59;3;;;2;;
15504;SDS011;7854;52.184;5.942;2023-02-28T02:24:17;2;;;2;;
15504;SDS011;7854;52.184;5.942;2023-02-28T02:26:36;4;;;4;;
15504;SDS011;7854;52.184;5.942;2023-02-28T02:28:55;6;;;3;;
15504;SDS011;7854;52.184;5.942;2023-02-28T02:31:03;8;;;6;;
15504;SDS011;7854;52.184;5.942;2023-02-28T02:33:08;8;;;8;;
15504;SDS011;7854;52.184;5.942;2023-02-28T02:35:19;9;;;8;;
15504;SDS011;7854;52.184;5.942;2023-02-28T02:37:35;11;;;9;;
15504;SDS011;7854;52.184;5.942;2023-02-28T02:39:49;17;;;9;;
15504;SDS011;7854;52.184;5.942;2023-02-28T02:42:03;12;;;8;;
15504;SDS011;7854;52.184;5.942;2023-02-28T02:44:18;8;;;7;;
15504;SDS011;7854;52.184;5.942;2023-02-28T02:46:32;7;;;6;;
15504;SDS011;7854;52.184;5.942;2023-02-28T02:48:45;4;;;4;;
15504;SDS011;7854;52.184;5.942;2023-02-28T02:53:14;4;;;4;;
15504;SDS011;7854;52.184;5.942;2023-02-28T02:55:29;4;;;4;;
15504;SDS011;7854;52.184;5.942;2023-02-28T02:57:44;3;;;3;;
15504;SDS011;7854;52.184;5.942;2023-02-28T02:59:58;5;;;5;;
15504;SDS011;7854;52.184;5.942;2023-02-28T03:02:12;3;;;3;;
15504;SDS011;7854;52.184;5.942;2023-02-28T03:04:27;2;;;2;;
15504;SDS011;7854;52.184;5.942;2023-02-28T03:06:41;3;;;3;;
15504;SDS011;7854;52.184;5.942;2023-02-28T03:08:55;2;;;2;;
15504;SDS011;7854;52.184;5.942;2023-02-28T03:11:12;2;;;2;;
15504;SDS011;7854;52.184;5.942;2023-02-28T03:15:41;3;;;2;;
15504;SDS011;7854;52.184;5.942;2023-02-28T03:17:57;2;;;2;;
15504;SDS011;7854;52.184;5.942;2023-02-28T03:20:11;3;;;3;;
15504;SDS011;7854;52.184;5.942;2023-02-28T03:22:25;3;;;2;;
15504;SDS011;7854;52.184;5.942;2023-02-28T03:24:38;3;;;3;;
15504;SDS011;7854;52.184;5.942;2023-02-28T03:26:52;2;;;2;;
15504;SDS011;7854;52.184;5.942;2023-02-28T03:29:06;4;;;3;;
15504;SDS011;7854;52.184;5.942;2023-02-28T03:31:20;2;;;2;;
15504;SDS011;7854;52.184;5.942;2023-02-28T03:33:36;3;;;3;;
15504;SDS011;7854;52.184;5.942;2023-02-28T03:38:04;3;;;2;;
15504;SDS011;7854;52.184;5.942;2023-02-28T03:40:17;4;;;3;;
15504;SDS011;7854;52.184;5.942;2023-02-28T03:42:37;3;;;3;;
15504;SDS011;7854;52.184;5.942;2023-02-28T03:44:59;2;;;2;;
15504;SDS011;7854;52.184;5.942;2023-02-28T03:47:20;3;;;3;;
15504;SDS011;7854;52.184;5.942;2023-02-28T03:49:40;3;;;3;;
15504;SDS011;7854;52.184;5.942;2023-02-28T03:52:00;3;;;3;;
15504;SDS011;7854;52.184;5.942;2023-02-28T03:54:19;2;;;2;;
15504;SDS011;7854;52.184;5.942;2023-02-28T03:56:34;2;;;2;;
15504;SDS011;7854;52.184;5.942;2023-02-28T03:58:49;4;;;2;;
15504;SDS011;7854;52.184;5.942;2023-02-28T04:01:03;1;;;1;;
15504;SDS011;7854;52.184;5.942;2023-02-28T04:03:17;2;;;2;;
15504;SDS011;7854;52.184;5.942;2023-02-28T04:05:31;3;;;2;;
15504;SDS011;7854;52.184;5.942;2023-02-28T04:07:45;2;;;2;;
15504;SDS011;7854;52.184;5.942;2023-02-28T04:10:00;2;;;2;;
15504;SDS011;7854;52.184;5.942;2023-02-28T04:12:15;2;;;2;;
15504;SDS011;7854;52.184;5.942;2023-02-28T04:14:29;2;;;1;;
15504;SDS011;7854;52.184;5.942;2023-02-28T04:16:43;2;;;2;;
15504;SDS011;7854;52.184;5.942;2023-02-28T04:18:58;4;;;3;;
15504;SDS011;7854;52.184;5.942;2023-02-28T04:21:12;7;;;2;;
15504;SDS011;7854;52.184;5.942;2023-02-28T04:23:27;3;;;3;;
15504;SDS011;7854;52.184;5.942;2023-02-28T04:25:41;3;;;3;;
15504;SDS011;7854;52.184;5.942;2023-02-28T04:27:55;3;;;3;;
15504;SDS011;7854;52.184;5.942;2023-02-28T04:30:11;3;;;2;;
15504;SDS011;7854;52.184;5.942;2023-02-28T04:32:25;2;;;2;;
15504;SDS011;7854;52.184;5.942;2023-02-28T04:34:39;3;;;3;;
15504;SDS011;7854;52.184;5.942;2023-02-28T04:36:54;5;;;3;;
15504;SDS011;7854;52.184;5.942;2023-02-28T04:39:08;3;;;3;;
15504;SDS011;7854;52.184;5.942;2023-02-28T04:41:22;3;;;3;;
15504;SDS011;7854;52.184;5.942;2023-02-28T04:43:37;2;;;1;;
15504;SDS011;7854;52.184;5.942;2023-02-28T04:45:51;3;;;3;;
15504;SDS011;7854;52.184;5.942;2023-02-28T04:48:06;4;;;3;;
15504;SDS011;7854;52.184;5.942;2023-02-28T04:50:20;3;;;3;;
15504;SDS011;7854;52.184;5.942;2023-02-28T04:52:35;5;;;2;;
15504;SDS011;7854;52.184;5.942;2023-02-28T04:54:49;3;;;2;;
15504;SDS011;7854;52.184;5.942;2023-02-28T04:57:03;3;;;2;;
15504;SDS011;7854;52.184;5.942;2023-02-28T04:59:18;4;;;3;;
15504;SDS011;7854;52.184;5.942;2023-02-28T05:01:33;3;;;3;;
15504;SDS011;7854;52.184;5.942;2023-02-28T05:03:47;2;;;2;;
15504;SDS011;7854;52.184;5.942;2023-02-28T05:06:01;3;;;2;;
15504;SDS011;7854;52.184;5.942;2023-02-28T05:08:15;2;;;2;;
15504;SDS011;7854;52.184;5.942;2023-02-28T05:10:30;3;;;3;;
15504;SDS011;7854;52.184;5.942;2023-02-28T05:12:44;2;;;2;;
15504;SDS011;7854;52.184;5.942;2023-02-28T05:14:59;5;;;3;;
15504;SDS011;7854;52.184;5.942;2023-02-28T05:17:13;2;;;2;;
15504;SDS011;7854;52.184;5.942;2023-02-28T05:19:28;2;;;2;;
15504;SDS011;7854;52.184;5.942;2023-02-28T05:21:48;9;;;2;;
15504;SDS011;7854;52.184;5.942;2023-02-28T05:23:59;2;;;2;;
15504;SDS011;7854;52.184;5.942;2023-02-28T05:26:11;2;;;2;;
15504;SDS011;7854;52.184;5.942;2023-02-28T05:28:26;2;;;2;;
15504;SDS011;7854;52.184;5.942;2023-02-28T05:32:55;3;;;2;;
15504;SDS011;7854;52.184;5.942;2023-02-28T05:35:09;2;;;2;;
15504;SDS011;7854;52.184;5.942;2023-02-28T05:37:23;2;;;2;;
15504;SDS011;7854;52.184;5.942;2023-02-28T05:39:38;2;;;2;;
15504;SDS011;7854;52.184;5.942;2023-02-28T05:41:52;9;;;2;;
15504;SDS011;7854;52.184;5.942;2023-02-28T05:44:07;2;;;2;;
15504;SDS011;7854;52.184;5.942;2023-02-28T05:46:21;3;;;2;;
15504;SDS011;7854;52.184;5.942;2023-02-28T05:50:50;2;;;2;;
15504;SDS011;7854;52.184;5.942;2023-02-28T05:55:19;3;;;2;;
15504;SDS011;7854;52.184;5.942;2023-02-28T05:57:32;2;;;2;;
15504;SDS011;7854;52.184;5.942;2023-02-28T05:59:59;2;;;1;;
15504;SDS011;7854;52.184;5.942;2023-02-28T06:02:14;2;;;2;;
15504;SDS011;7854;52.184;5.942;2023-02-28T06:04:34;2;;;1;;
15504;SDS011;7854;52.184;5.942;2023-02-28T06:06:54;3;;;2;;
15504;SDS011;7854;52.184;5.942;2023-02-28T06:09:15;2;;;2;;
15504;SDS011;7854;52.184;5.942;2023-02-28T06:11:35;2;;;2;;
15504;SDS011;7854;52.184;5.942;2023-02-28T06:13:55;2;;;2;;
15504;SDS011;7854;52.184;5.942;2023-02-28T06:16:10;2;;;2;;
15504;SDS011;7854;52.184;5.942;2023-02-28T06:18:24;1;;;1;;
15504;SDS011;7854;52.184;5.942;2023-02-28T06:20:38;3;;;2;;
15504;SDS011;7854;52.184;5.942;2023-02-28T06:22:53;2;;;2;;
15504;SDS011;7854;52.184;5.942;2023-02-28T06:25:09;2;;;2;;
15504;SDS011;7854;52.184;5.942;2023-02-28T06:27:22;2;;;2;;
15504;SDS011;7854;52.184;5.942;2023-02-28T06:29:36;2;;;2;;
15504;SDS011;7854;52.184;5.942;2023-02-28T06:31:51;1;;;1;;
15504;SDS011;7854;52.184;5.942;2023-02-28T06:34:05;2;;;2;;
15504;SDS011;7854;52.184;5.942;2023-02-28T06:38:34;6;;;5;;
15504;SDS011;7854;52.184;5.942;2023-02-28T06:45:18;7;;;6;;
15504;SDS011;7854;52.184;5.942;2023-02-28T06:47:31;4;;;4;;
15504;SDS011;7854;52.184;5.942;2023-02-28T06:49:52;3;;;3;;
15504;SDS011;7854;52.184;5.942;2023-02-28T06:52:12;3;;;3;;
15504;SDS011;7854;52.184;5.942;2023-02-28T06:54:33;3;;;3;;
15504;SDS011;7854;52.184;5.942;2023-02-28T06:56:53;3;;;3;;
15504;SDS011;7854;52.184;5.942;2023-02-28T06:59:20;2;;;2;;
15504;SDS011;7854;52.184;5.942;2023-02-28T07:01:35;3;;;3;;
15504;SDS011;7854;52.184;5.942;2023-02-28T07:06:08;3;;;2;;
15504;SDS011;7854;52.184;5.942;2023-02-28T07:08:22;2;;;2;;
15504;SDS011;7854;52.184;5.942;2023-02-28T07:10:51;3;;;3;;
15504;SDS011;7854;52.184;5.942;2023-02-28T07:13:16;2;;;2;;
15504;SDS011;7854;52.184;5.942;2023-02-28T07:15:43;2;;;2;;
15504;SDS011;7854;52.184;5.942;2023-02-28T07:18:09;3;;;3;;
15504;SDS011;7854;52.184;5.942;2023-02-28T07:20:29;3;;;3;;
15504;SDS011;7854;52.184;5.942;2023-02-28T07:22:43;3;;;2;;
15504;SDS011;7854;52.184;5.942;2023-02-28T07:25:04;3;;;2;;
15504;SDS011;7854;52.184;5.942;2023-02-28T07:27:25;3;;;2;;
15504;SDS011;7854;52.184;5.942;2023-02-28T07:29:51;3;;;3;;
15504;SDS011;7854;52.184;5.942;2023-02-28T07:32:05;8;;;2;;
15504;SDS011;7854;52.184;5.942;2023-02-28T07:34:26;3;;;2;;
15504;SDS011;7854;52.184;5.942;2023-02-28T07:36:40;3;;;2;;
15504;SDS011;7854;52.184;5.942;2023-02-28T07:38:54;1;;;1;;
15504;SDS011;7854;52.184;5.942;2023-02-28T07:45:38;2;;;2;;
15504;SDS011;7854;52.184;5.942;2023-02-28T07:47:52;2;;;2;;
15504;SDS011;7854;52.184;5.942;2023-02-28T07:50:07;3;;;2;;
15504;SDS011;7854;52.184;5.942;2023-02-28T07:52:21;10;;;2;;
15504;SDS011;7854;52.184;5.942;2023-02-28T07:54:35;2;;;2;;
15504;SDS011;7854;52.184;5.942;2023-02-28T07:56:50;1;;;1;;
15504;SDS011;7854;52.184;5.942;2023-02-28T07:59:04;6;;;1;;
15504;SDS011;7854;52.184;5.942;2023-02-28T08:01:19;1;;;1;;
15504;SDS011;7854;52.184;5.942;2023-02-28T08:03:33;2;;;1;;
15504;SDS011;7854;52.184;5.942;2023-02-28T08:05:52;1;;;1;;
15504;SDS011;7854;52.184;5.942;2023-02-28T08:08:07;1;;;0;;
15504;SDS011;7854;52.184;5.942;2023-02-28T08:10:27;0;;;0;;
15504;SDS011;7854;52.184;5.942;2023-02-28T08:12:48;0;;;0;;
15504;SDS011;7854;52.184;5.942;2023-02-28T08:15:09;1;;;1;;
15504;SDS011;7854;52.184;5.942;2023-02-28T08:17:29;0;;;0;;
15504;SDS011;7854;52.184;5.942;2023-02-28T08:19:50;2;;;1;;
15504;SDS011;7854;52.184;5.942;2023-02-28T08:22:03;2;;;1;;
15504;SDS011;7854;52.184;5.942;2023-02-28T08:24:18;0;;;0;;
15504;SDS011;7854;52.184;5.942;2023-02-28T08:26:32;0;;;0;;
15504;SDS011;7854;52.184;5.942;2023-02-28T08:28:47;1;;;0;;
15504;SDS011;7854;52.184;5.942;2023-02-28T08:31:01;0;;;0;;
15504;SDS011;7854;52.184;5.942;2023-02-28T08:33:16;0;;;0;;
15504;SDS011;7854;52.184;5.942;2023-02-28T08:35:30;1;;;1;;
15504;SDS011;7854;52.184;5.942;2023-02-28T08:42:13;0;;;0;;
15504;SDS011;7854;52.184;5.942;2023-02-28T08:46:42;2;;;0;;
15504;SDS011;7854;52.184;5.942;2023-02-28T08:48:57;0;;;0;;
15504;SDS011;7854;52.184;5.942;2023-02-28T08:51:12;0;;;0;;
15504;SDS011;7854;52.184;5.942;2023-02-28T08:53:24;0;;;0;;
15504;SDS011;7854;52.184;5.942;2023-02-28T08:58:06;1;;;0;;
15504;SDS011;7854;52.184;5.942;2023-02-28T09:00:26;0;;;0;;
15504;SDS011;7854;52.184;5.942;2023-02-28T09:05:08;1;;;1;;
15504;SDS011;7854;52.184;5.942;2023-02-28T09:07:28;1;;;1;;
15504;SDS011;7854;52.184;5.942;2023-02-28T09:09:54;0;;;0;;
15504;SDS011;7854;52.184;5.942;2023-02-28T09:12:09;0;;;0;;
15504;SDS011;7854;52.184;5.942;2023-02-28T09:14:36;1;;;1;;
15504;SDS011;7854;52.184;5.942;2023-02-28T09:16:50;1;;;1;;
15504;SDS011;7854;52.184;5.942;2023-02-28T09:19:17;1;;;0;;
15504;SDS011;7854;52.184;5.942;2023-02-28T09:21:43;1;;;1;;
15504;SDS011;7854;52.184;5.942;2023-02-28T09:23:57;0;;;0;;
15504;SDS011;7854;52.184;5.942;2023-02-28T09:26:36;1;;;0;;
15504;SDS011;7854;52.184;5.942;2023-02-28T09:28:52;1;;;1;;
15504;SDS011;7854;52.184;5.942;2023-02-28T09:31:20;1;;;1;;
15504;SDS011;7854;52.184;5.942;2023-02-28T09:33:52;0;;;0;;
15504;SDS011;7854;52.184;5.942;2023-02-28T09:36:11;12;;;0;;
15504;SDS011;7854;52.184;5.942;2023-02-28T09:43:13;1;;;0;;
15504;SDS011;7854;52.184;5.942;2023-02-28T09:45:35;0;;;0;;
15504;SDS011;7854;52.184;5.942;2023-02-28T09:47:54;0;;;0;;
15504;SDS011;7854;52.184;5.942;2023-02-28T09:50:23;3;;;0;;
15504;SDS011;7854;52.184;5.942;2023-02-28T09:52:35;0;;;0;;
15504;SDS011;7854;52.184;5.942;2023-02-28T09:54:56;0;;;0;;
15504;SDS011;7854;52.184;5.942;2023-02-28T09:57:11;0;;;0;;
15504;SDS011;7854;52.184;5.942;2023-02-28T10:10:37;0;;;0;;
15504;SDS011;7854;52.184;5.942;2023-02-28T10:15:05;0;;;0;;
15504;SDS011;7854;52.184;5.942;2023-02-28T10:17:19;0;;;0;;
15504;SDS011;7854;52.184;5.942;2023-02-28T10:19:33;0;;;0;;
15504;SDS011;7854;52.184;5.942;2023-02-28T10:21:47;0;;;0;;
15504;SDS011;7854;52.184;5.942;2023-02-28T10:24:02;1;;;0;;
15504;SDS011;7854;52.184;5.942;2023-02-28T10:26:17;0;;;0;;
15504;SDS011;7854;52.184;5.942;2023-02-28T10:30:46;0;;;0;;
15504;SDS011;7854;52.184;5.942;2023-02-28T10:37:28;0;;;0;;
15504;SDS011;7854;52.184;5.942;2023-02-28T10:39:47;0;;;0;;
15504;SDS011;7854;52.184;5.942;2023-02-28T10:44:23;0;;;0;;
15504;SDS011;7854;52.184;5.942;2023-02-28T10:46:43;0;;;0;;
15504;SDS011;7854;52.184;5.942;2023-02-28T10:49:05;0;;;0;;
15504;SDS011;7854;52.184;5.942;2023-02-28T10:51:35;0;;;0;;
15504;SDS011;7854;52.184;5.942;2023-02-28T10:53:51;0;;;0;;
15504;SDS011;7854;52.184;5.942;2023-02-28T10:56:12;2;;;0;;
15504;SDS011;7854;52.184;5.942;2023-02-28T11:00:47;0;;;0;;
15504;SDS011;7854;52.184;5.942;2023-02-28T11:03:09;0;;;0;;
15504;SDS011;7854;52.184;5.942;2023-02-28T11:07:54;1;;;1;;
15504;SDS011;7854;52.184;5.942;2023-02-28T11:10:16;0;;;0;;
15504;SDS011;7854;52.184;5.942;2023-02-28T11:12:46;0;;;0;;
15504;SDS011;7854;52.184;5.942;2023-02-28T11:15:02;0;;;0;;
15504;SDS011;7854;52.184;5.942;2023-02-28T11:17:40;0;;;0;;
15504;SDS011;7854;52.184;5.942;2023-02-28T11:19:56;0;;;0;;
15504;SDS011;7854;52.184;5.942;2023-02-28T11:22:23;0;;;0;;
15504;SDS011;7854;52.184;5.942;2023-02-28T11:24:55;0;;;0;;
15504;SDS011;7854;52.184;5.942;2023-02-28T11:29:29;5;;;0;;
15504;SDS011;7854;52.184;5.942;2023-02-28T11:32:09;1;;;0;;
15504;SDS011;7854;52.184;5.942;2023-02-28T11:34:23;0;;;0;;
15504;SDS011;7854;52.184;5.942;2023-02-28T11:36:31;0;;;0;;
15504;SDS011;7854;52.184;5.942;2023-02-28T11:38:52;4;;;0;;
15504;SDS011;7854;52.184;5.942;2023-02-28T11:41:17;0;;;0;;
15504;SDS011;7854;52.184;5.942;2023-02-28T11:43:36;0;;;0;;
15504;SDS011;7854;52.184;5.942;2023-02-28T11:52:37;0;;;0;;
15504;SDS011;7854;52.184;5.942;2023-02-28T11:54:53;0;;;0;;
15504;SDS011;7854;52.184;5.942;2023-02-28T11:57:28;1;;;0;;
15504;SDS011;7854;52.184;5.942;2023-02-28T11:59:47;0;;;0;;
15504;SDS011;7854;52.184;5.942;2023-02-28T12:02:26;0;;;0;;
15504;SDS011;7854;52.184;5.942;2023-02-28T12:04:40;0;;;0;;
15504;SDS011;7854;52.184;5.942;2023-02-28T12:07:12;0;;;0;;
15504;SDS011;7854;52.184;5.942;2023-02-28T12:09:35;1;;;1;;
15504;SDS011;7854;52.184;5.942;2023-02-28T12:11:52;1;;;0;;
15504;SDS011;7854;52.184;5.942;2023-02-28T12:14:22;1;;;1;;
15504;SDS011;7854;52.184;5.942;2023-02-28T12:16:37;0;;;0;;
15504;SDS011;7854;52.184;5.942;2023-02-28T12:18:57;0;;;0;;
15504;SDS011;7854;52.184;5.942;2023-02-28T12:21:16;1;;;1;;
15504;SDS011;7854;52.184;5.942;2023-02-28T12:23:44;1;;;1;;
15504;SDS011;7854;52.184;5.942;2023-02-28T12:28:16;1;;;1;;
15504;SDS011;7854;52.184;5.942;2023-02-28T12:30:37;0;;;0;;
15504;SDS011;7854;52.184;5.942;2023-02-28T12:33:04;2;;;1;;
15504;SDS011;7854;52.184;5.942;2023-02-28T12:35:24;1;;;1;;
15504;SDS011;7854;52.184;5.942;2023-02-28T12:37:57;1;;;1;;
15504;SDS011;7854;52.184;5.942;2023-02-28T12:40:12;0;;;0;;
15504;SDS011;7854;52.184;5.942;2023-02-28T12:42:39;1;;;1;;
15504;SDS011;7854;52.184;5.942;2023-02-28T12:45:07;1;;;1;;
15504;SDS011;7854;52.184;5.942;2023-02-28T12:47:38;1;;;1;;
15504;SDS011;7854;52.184;5.942;2023-02-28T12:49:59;7;;;1;;
15504;SDS011;7854;52.184;5.942;2023-02-28T12:54:46;2;;;1;;
15504;SDS011;7854;52.184;5.942;2023-02-28T12:57:06;0;;;0;;
15504;SDS011;7854;52.184;5.942;2023-02-28T13:01:52;7;;;1;;
15504;SDS011;7854;52.184;5.942;2023-02-28T13:04:12;0;;;0;;
15504;SDS011;7854;52.184;5.942;2023-02-28T13:06:33;0;;;0;;
15504;SDS011;7854;52.184;5.942;2023-02-28T13:08:48;1;;;0;;
15504;SDS011;7854;52.184;5.942;2023-02-28T13:11:14;0;;;0;;
15504;SDS011;7854;52.184;5.942;2023-02-28T13:16:00;1;;;1;;
15504;SDS011;7854;52.184;5.942;2023-02-28T13:18:25;2;;;0;;
15504;SDS011;7854;52.184;5.942;2023-02-28T13:20:33;0;;;0;;
15504;SDS011;7854;52.184;5.942;2023-02-28T13:22:52;0;;;0;;
15504;SDS011;7854;52.184;5.942;2023-02-28T13:27:34;0;;;0;;
15504;SDS011;7854;52.184;5.942;2023-02-28T13:29:53;0;;;0;;
15504;SDS011;7854;52.184;5.942;2023-02-28T13:34:28;0;;;0;;
15504;SDS011;7854;52.184;5.942;2023-02-28T13:36:48;3;;;0;;
15504;SDS011;7854;52.184;5.942;2023-02-28T13:41:40;1;;;1;;
15504;SDS011;7854;52.184;5.942;2023-02-28T13:44:06;1;;;1;;
15504;SDS011;7854;52.184;5.942;2023-02-28T13:46:17;2;;;0;;
15504;SDS011;7854;52.184;5.942;2023-02-28T13:48:37;0;;;0;;
15504;SDS011;7854;52.184;5.942;2023-02-28T13:50:52;1;;;0;;
15504;SDS011;7854;52.184;5.942;2023-02-28T13:53:21;0;;;0;;
15504;SDS011;7854;52.184;5.942;2023-02-28T13:55:34;0;;;0;;
15504;SDS011;7854;52.184;5.942;2023-02-28T13:57:57;0;;;0;;
15504;SDS011;7854;52.184;5.942;2023-02-28T14:00:17;1;;;0;;
15504;SDS011;7854;52.184;5.942;2023-02-28T14:02:42;0;;;0;;
15504;SDS011;7854;52.184;5.942;2023-02-28T14:04:54;0;;;0;;
15504;SDS011;7854;52.184;5.942;2023-02-28T14:07:16;0;;;0;;
15504;SDS011;7854;52.184;5.942;2023-02-28T14:09:36;1;;;0;;
15504;SDS011;7854;52.184;5.942;2023-02-28T14:11:50;0;;;0;;
15504;SDS011;7854;52.184;5.942;2023-02-28T14:14:53;1;;;0;;
15504;SDS011;7854;52.184;5.942;2023-02-28T14:16:36;0;;;0;;
15504;SDS011;7854;52.184;5.942;2023-02-28T14:18:55;0;;;0;;
15504;SDS011;7854;52.184;5.942;2023-02-28T14:21:21;2;;;0;;
15504;SDS011;7854;52.184;5.942;2023-02-28T14:23:35;1;;;1;;
15504;SDS011;7854;52.184;5.942;2023-02-28T14:25:47;0;;;0;;
15504;SDS011;7854;52.184;5.942;2023-02-28T14:28:04;0;;;0;;
15504;SDS011;7854;52.184;5.942;2023-02-28T14:30:20;1;;;1;;
15504;SDS011;7854;52.184;5.942;2023-02-28T14:34:45;1;;;0;;
15504;SDS011;7854;52.184;5.942;2023-02-28T14:43:47;0;;;0;;
15504;SDS011;7854;52.184;5.942;2023-02-28T14:45:57;0;;;0;;
15504;SDS011;7854;52.184;5.942;2023-02-28T14:50:26;0;;;0;;
15504;SDS011;7854;52.184;5.942;2023-02-28T14:52:42;0;;;0;;
15504;SDS011;7854;52.184;5.942;2023-02-28T14:54:55;2;;;0;;
15504;SDS011;7854;52.184;5.942;2023-02-28T14:57:19;0;;;0;;
15504;SDS011;7854;52.184;5.942;2023-02-28T14:59:24;1;;;0;;
15504;SDS011;7854;52.184;5.942;2023-02-28T15:01:49;0;;;0;;
15504;SDS011;7854;52.184;5.942;2023-02-28T15:04:20;0;;;0;;
15504;SDS011;7854;52.184;5.942;2023-02-28T15:06:43;1;;;0;;
15504;SDS011;7854;52.184;5.942;2023-02-28T15:09:11;0;;;0;;
15504;SDS011;7854;52.184;5.942;2023-02-28T15:11:23;0;;;0;;
15504;SDS011;7854;52.184;5.942;2023-02-28T15:13:44;0;;;0;;
15504;SDS011;7854;52.184;5.942;2023-02-28T15:18:27;0;;;0;;
15504;SDS011;7854;52.184;5.942;2023-02-28T15:20:46;0;;;0;;
15504;SDS011;7854;52.184;5.942;2023-02-28T15:23:06;3;;;0;;
15504;SDS011;7854;52.184;5.942;2023-02-28T15:25:26;0;;;0;;
15504;SDS011;7854;52.184;5.942;2023-02-28T15:27:48;0;;;0;;
15504;SDS011;7854;52.184;5.942;2023-02-28T15:30:15;0;;;0;;
15504;SDS011;7854;52.184;5.942;2023-02-28T15:32:34;1;;;0;;
15504;SDS011;7854;52.184;5.942;2023-02-28T15:34:54;1;;;1;;
15504;SDS011;7854;52.184;5.942;2023-02-28T15:37:32;2;;;1;;
15504;SDS011;7854;52.184;5.942;2023-02-28T15:39:48;0;;;0;;
15504;SDS011;7854;52.184;5.942;2023-02-28T15:42:22;0;;;0;;
15504;SDS011;7854;52.184;5.942;2023-02-28T15:44:41;0;;;0;;
15504;SDS011;7854;52.184;5.942;2023-02-28T15:47:02;0;;;0;;
15504;SDS011;7854;52.184;5.942;2023-02-28T15:49:22;0;;;0;;
15504;SDS011;7854;52.184;5.942;2023-02-28T15:51:42;0;;;0;;
15504;SDS011;7854;52.184;5.942;2023-02-28T15:54:12;1;;;1;;
15504;SDS011;7854;52.184;5.942;2023-02-28T15:58:52;0;;;0;;
15504;SDS011;7854;52.184;5.942;2023-02-28T16:01:06;0;;;0;;
15504;SDS011;7854;52.184;5.942;2023-02-28T16:05:46;0;;;0;;
15504;SDS011;7854;52.184;5.942;2023-02-28T16:08:13;0;;;0;;
15504;SDS011;7854;52.184;5.942;2023-02-28T16:10:39;0;;;0;;
15504;SDS011;7854;52.184;5.942;2023-02-28T16:13:01;0;;;0;;
15504;SDS011;7854;52.184;5.942;2023-02-28T16:15:27;1;;;0;;
15504;SDS011;7854;52.184;5.942;2023-02-28T16:17:54;1;;;1;;
15504;SDS011;7854;52.184;5.942;2023-02-28T16:20:21;2;;;1;;
15504;SDS011;7854;52.184;5.942;2023-02-28T16:22:46;1;;;0;;
15504;SDS011;7854;52.184;5.942;2023-02-28T16:25:01;1;;;0;;
15504;SDS011;7854;52.184;5.942;2023-02-28T16:27:28;1;;;0;;
15504;SDS011;7854;52.184;5.942;2023-02-28T16:29:41;0;;;0;;
15504;SDS011;7854;52.184;5.942;2023-02-28T16:32:04;0;;;0;;
15504;SDS011;7854;52.184;5.942;2023-02-28T16:34:23;1;;;1;;
15504;SDS011;7854;52.184;5.942;2023-02-28T16:36:43;1;;;0;;
15504;SDS011;7854;52.184;5.942;2023-02-28T16:39:10;2;;;0;;
15504;SDS011;7854;52.184;5.942;2023-02-28T16:41:25;1;;;1;;
15504;SDS011;7854;52.184;5.942;2023-02-28T16:43:45;4;;;1;;
15504;SDS011;7854;52.184;5.942;2023-02-28T16:45:58;1;;;1;;
15504;SDS011;7854;52.184;5.942;2023-02-28T16:48:14;4;;;1;;
15504;SDS011;7854;52.184;5.942;2023-02-28T16:50:28;0;;;0;;
15504;SDS011;7854;52.184;5.942;2023-02-28T16:52:42;1;;;1;;
15504;SDS011;7854;52.184;5.942;2023-02-28T16:54:56;1;;;1;;
15504;SDS011;7854;52.184;5.942;2023-02-28T16:57:15;1;;;1;;
15504;SDS011;7854;52.184;5.942;2023-02-28T17:01:39;1;;;1;;
15504;SDS011;7854;52.184;5.942;2023-02-28T17:08:23;5;;;1;;
15504;SDS011;7854;52.184;5.942;2023-02-28T17:12:52;1;;;1;;
15504;SDS011;7854;52.184;5.942;2023-02-28T17:15:06;4;;;2;;
15504;SDS011;7854;52.184;5.942;2023-02-28T17:19:47;2;;;1;;
15504;SDS011;7854;52.184;5.942;2023-02-28T17:22:07;1;;;1;;
15504;SDS011;7854;52.184;5.942;2023-02-28T17:24:20;3;;;3;;
15504;SDS011;7854;52.184;5.942;2023-02-28T17:26:41;2;;;2;;
15504;SDS011;7854;52.184;5.942;2023-02-28T17:29:01;5;;;2;;
15504;SDS011;7854;52.184;5.942;2023-02-28T17:31:23;2;;;2;;
15504;SDS011;7854;52.184;5.942;2023-02-28T17:33:43;13;;;3;;
15504;SDS011;7854;52.184;5.942;2023-02-28T17:38:24;6;;;2;;
15504;SDS011;7854;52.184;5.942;2023-02-28T17:40:44;2;;;2;;
15504;SDS011;7854;52.184;5.942;2023-02-28T17:43:05;6;;;2;;
15504;SDS011;7854;52.184;5.942;2023-02-28T17:45:32;2;;;2;;
15504;SDS011;7854;52.184;5.942;2023-02-28T17:47:47;2;;;2;;
15504;SDS011;7854;52.184;5.942;2023-02-28T17:50:00;2;;;1;;